createdAt,value
2023-08-29T00:01:38.005Z,100466.91
2023-08-29T00:04:04.958Z,100462.59
2023-08-29T00:06:31.653Z,100459.03
2023-08-29T00:08:58.293Z,100459.94
2023-08-29T00:11:24.955Z,100456.41
2023-08-29T00:13:53.686Z,100450.41
2023-08-29T00:16:20.502Z,100447.78
2023-08-29T00:18:47.179Z,100443.56
2023-08-29T00:21:13.770Z,100434.91
2023-08-29T00:23:40.391Z,100433.19
2023-08-29T00:26:07.111Z,100441.84
2023-08-29T00:28:33.712Z,100432.38
2023-08-29T00:31:00.420Z,100437.59
2023-08-29T00:33:27.066Z,100438.41
2023-08-29T00:35:53.668Z,100442.72
2023-08-29T00:38:20.410Z,100441.78
2023-08-29T00:40:47.039Z,100439.91
2023-08-29T00:43:14.914Z,100443.41
2023-08-29T00:45:41.848Z,100441.69
2023-08-29T00:48:09.832Z,100442.53
2023-08-29T00:50:37.194Z,100439.00
2023-08-29T00:53:07.038Z,100432.91
2023-08-29T00:55:35.959Z,100430.28
2023-08-29T00:58:03.793Z,100437.31
2023-08-29T01:00:32.284Z,100439.06
2023-08-29T01:03:01.105Z,100441.97
2023-08-29T01:05:29.713Z,100449.81
2023-08-29T01:08:01.057Z,100442.00
2023-08-29T01:10:46.926Z,100448.94
2023-08-29T01:13:40.656Z,100458.50
2023-08-29T01:16:11.355Z,100461.16
2023-08-29T01:18:39.232Z,100466.59
2023-08-29T01:21:30.466Z,100464.97
2023-08-29T01:24:16.776Z,100459.75
2023-08-29T01:26:45.288Z,100468.53
2023-08-29T01:29:12.301Z,100473.72
2023-08-29T01:31:39.215Z,100478.09
2023-08-29T01:34:06.361Z,100482.53
2023-08-29T01:36:42.592Z,100486.88
2023-08-29T01:39:09.278Z,100488.56
2023-08-29T01:41:36.062Z,100488.53
2023-08-29T01:44:03.903Z,100497.28
2023-08-29T01:46:31.169Z,100498.94
2023-08-29T01:49:00.081Z,100494.63
2023-08-29T01:51:26.651Z,100497.13
2023-08-29T01:53:53.781Z,100498.03
2023-08-29T01:56:24.064Z,100503.31
2023-08-29T01:58:53.432Z,100512.13
2023-08-29T02:01:23.558Z,100515.59
2023-08-29T02:03:51.024Z,100507.72
2023-08-29T02:06:19.154Z,100505.03
2023-08-29T02:08:45.971Z,100514.63
2023-08-29T02:11:12.720Z,100507.66
2023-08-29T02:13:39.404Z,100507.59
2023-08-29T02:16:05.995Z,100507.56
2023-08-29T02:18:32.652Z,100505.00
2023-08-29T02:20:59.214Z,100509.41
2023-08-29T02:23:27.562Z,100509.34
2023-08-29T02:26:07.023Z,100502.41
2023-08-29T02:28:37.930Z,100502.38
2023-08-29T02:31:14.638Z,100504.06
2023-08-29T02:33:41.512Z,100504.03
2023-08-29T02:36:08.287Z,100504.97
2023-08-29T02:38:35.680Z,100506.78
2023-08-29T02:41:02.643Z,100511.22
2023-08-29T02:43:29.509Z,100499.03
2023-08-29T02:45:56.395Z,100512.16
2023-08-29T02:48:23.293Z,100506.09
2023-08-29T02:50:50.174Z,100513.09
2023-08-29T02:53:21.892Z,100497.38
2023-08-29T02:55:53.197Z,100500.03
2023-08-29T02:58:20.607Z,100501.78
2023-08-29T03:00:48.888Z,100495.63
2023-08-29T03:03:17.059Z,100493.06
2023-08-29T03:05:43.929Z,100492.19
2023-08-29T03:08:11.639Z,100492.19
2023-08-29T03:10:39.412Z,100494.78
2023-08-29T03:13:06.576Z,100492.94
2023-08-29T03:15:34.227Z,100495.53
2023-08-29T03:18:02.322Z,100497.31
2023-08-29T03:20:30.082Z,100502.53
2023-08-29T03:22:56.678Z,100499.91
2023-08-29T03:25:23.567Z,100487.81
2023-08-29T03:27:50.813Z,100483.44
2023-08-29T03:30:17.827Z,100483.50
2023-08-29T03:32:44.803Z,100479.16
2023-08-29T03:35:15.256Z,100471.31
2023-08-29T03:37:42.861Z,100473.94
2023-08-29T03:40:13.844Z,100473.06
2023-08-29T03:42:40.932Z,100466.91
2023-08-29T03:45:09.269Z,100456.41
2023-08-29T03:47:38.677Z,100448.56
2023-08-29T03:50:06.662Z,100442.50
2023-08-29T03:52:33.679Z,100433.00
2023-08-29T03:55:00.561Z,100434.84
2023-08-29T03:57:27.876Z,100429.59
2023-08-29T03:59:54.619Z,100427.03
2023-08-29T04:02:21.285Z,100433.09
2023-08-29T04:04:52.727Z,100426.13
2023-08-29T04:07:20.409Z,100414.84
2023-08-29T04:09:47.212Z,100420.97
2023-08-29T04:12:13.841Z,100428.81
2023-08-29T04:14:40.572Z,100422.59
2023-08-29T04:17:07.280Z,100423.47
2023-08-29T04:19:34.747Z,100420.81
2023-08-29T04:22:02.001Z,100415.53
2023-08-29T04:24:29.697Z,100418.91
2023-08-29T04:26:56.415Z,100419.75
2023-08-29T04:29:24.085Z,100424.16
2023-08-29T04:31:50.732Z,100417.25
2023-08-29T04:34:17.357Z,100405.94
2023-08-29T04:36:44.017Z,100414.56
2023-08-29T04:39:10.621Z,100415.53
2023-08-29T04:41:37.288Z,100410.25
2023-08-29T04:44:04.039Z,100416.41
2023-08-29T04:46:30.629Z,100422.41
2023-08-29T04:48:57.576Z,100429.47
2023-08-29T04:51:24.253Z,100423.31
2023-08-29T04:53:50.980Z,100424.16
2023-08-29T04:56:17.661Z,100431.16
2023-08-29T04:58:44.272Z,100430.22
2023-08-29T05:01:11.537Z,100431.13
2023-08-29T05:03:38.460Z,100428.50
2023-08-29T05:06:05.759Z,100426.75
2023-08-29T05:08:36.085Z,100433.72
2023-08-29T05:11:04.488Z,100433.66
2023-08-29T05:13:31.143Z,100444.06
2023-08-29T05:15:58.601Z,100432.78
2023-08-29T05:18:28.949Z,100432.75
2023-08-29T05:20:58.233Z,100430.97
2023-08-29T05:23:25.070Z,100426.63
2023-08-29T05:25:51.678Z,100432.72
2023-08-29T05:28:18.278Z,100425.78
2023-08-29T05:30:45.359Z,100424.91
2023-08-29T05:33:13.296Z,100425.75
2023-08-29T05:35:40.012Z,100434.47
2023-08-29T05:38:06.896Z,100428.41
2023-08-29T05:40:34.615Z,100427.63
2023-08-29T05:43:01.436Z,100426.75
2023-08-29T05:45:28.035Z,100429.28
2023-08-29T05:47:54.672Z,100428.38
2023-08-29T05:50:21.265Z,100428.25
2023-08-29T05:52:47.934Z,100425.66
2023-08-29T05:55:14.584Z,100419.59
2023-08-29T05:57:41.197Z,100421.25
2023-08-29T06:00:13.742Z,100420.53
2023-08-29T06:02:43.158Z,100426.66
2023-08-29T06:05:10.581Z,100414.41
2023-08-29T06:07:40.031Z,100427.41
2023-08-29T06:10:10.229Z,100416.03
2023-08-29T06:12:36.896Z,100425.75
2023-08-29T06:15:03.709Z,100424.81
2023-08-29T06:17:30.259Z,100416.78
2023-08-29T06:19:57.256Z,100420.25
2023-08-29T06:22:23.889Z,100423.69
2023-08-29T06:24:50.820Z,100427.09
2023-08-29T06:27:17.409Z,100430.63
2023-08-29T06:29:44.058Z,100431.44
2023-08-29T06:32:24.145Z,100427.81
2023-08-29T06:34:54.671Z,100431.41
2023-08-29T06:37:21.355Z,100429.56
2023-08-29T06:39:47.992Z,100440.91
2023-08-29T06:42:14.573Z,100438.13
2023-08-29T06:44:41.251Z,100450.38
2023-08-29T06:47:08.042Z,100442.50
2023-08-29T06:49:47.814Z,100438.09
2023-08-29T06:52:33.326Z,100435.50
2023-08-29T06:54:59.825Z,100438.03
2023-08-29T06:57:27.463Z,100433.75
2023-08-29T06:59:54.083Z,100430.13
2023-08-29T07:02:20.694Z,100438.84
2023-08-29T07:04:47.743Z,100429.97
2023-08-29T07:07:14.378Z,100435.16
2023-08-29T07:09:41.121Z,100433.28
2023-08-29T07:12:07.973Z,100434.31
2023-08-29T07:14:34.628Z,100426.22
2023-08-29T07:17:10.203Z,100427.13
2023-08-29T07:19:37.646Z,100421.72
2023-08-29T07:22:21.216Z,100428.72
2023-08-29T07:24:49.876Z,100430.34
2023-08-29T07:27:16.500Z,100430.31
2023-08-29T07:29:43.205Z,100432.00
2023-08-29T07:32:09.782Z,100438.78
2023-08-29T07:34:36.455Z,100432.69
2023-08-29T07:37:03.909Z,100437.97
2023-08-29T07:39:30.480Z,100445.03
2023-08-29T07:41:57.075Z,100444.97
2023-08-29T07:44:23.721Z,100455.28
2023-08-29T07:47:07.814Z,100450.81
2023-08-29T07:49:37.159Z,100451.44
2023-08-29T07:52:04.376Z,100452.50
2023-08-29T07:54:31.228Z,100455.94
2023-08-29T07:56:57.841Z,100455.13
2023-08-29T07:59:25.632Z,100459.81
2023-08-29T08:01:53.276Z,100458.44
2023-08-29T08:04:20.169Z,100452.91
2023-08-29T08:06:46.852Z,100456.16
2023-08-29T08:09:14.111Z,100457.66
2023-08-29T08:11:40.796Z,100452.69
2023-08-29T08:14:07.376Z,100462.09
2023-08-29T08:16:34.098Z,100457.66
2023-08-29T08:19:00.716Z,100462.75
2023-08-29T08:21:27.395Z,100462.97
2023-08-29T08:23:53.972Z,100462.22
2023-08-29T08:26:20.645Z,100465.78
2023-08-29T08:28:47.426Z,100471.88
2023-08-29T08:31:14.149Z,100475.09
2023-08-29T08:33:42.287Z,100473.06
2023-08-29T08:36:09.120Z,100472.34
2023-08-29T08:38:35.795Z,100473.16
2023-08-29T08:41:04.661Z,100473.16
2023-08-29T08:43:32.763Z,100476.56
2023-08-29T08:46:00.240Z,100475.56
2023-08-29T08:48:27.858Z,100473.69
2023-08-29T08:51:10.702Z,100475.56
2023-08-29T08:53:42.374Z,100481.78
2023-08-29T08:56:09.690Z,100473.78
2023-08-29T08:58:38.373Z,100487.00
2023-08-29T09:01:05.530Z,100474.69
2023-08-29T09:03:32.399Z,100486.72
2023-08-29T09:05:59.079Z,100481.31
2023-08-29T09:08:25.977Z,100475.22
2023-08-29T09:10:54.349Z,100469.44
2023-08-29T09:13:21.698Z,100480.72
2023-08-29T09:15:48.644Z,100478.97
2023-08-29T09:18:24.693Z,100481.47
2023-08-29T09:20:55.617Z,100476.75
2023-08-29T09:23:24.094Z,100481.66
2023-08-29T09:25:57.979Z,100479.00
2023-08-29T09:28:28.976Z,100500.94
2023-08-29T09:30:56.781Z,100488.31
2023-08-29T09:33:23.613Z,100496.06
2023-08-29T09:35:50.873Z,100498.38
2023-08-29T09:38:20.446Z,100492.63
2023-08-29T09:40:51.594Z,100492.00
2023-08-29T09:43:18.756Z,100494.78
2023-08-29T09:45:53.580Z,100487.53
2023-08-29T09:48:20.778Z,100487.41
2023-08-29T09:50:49.198Z,100486.69
2023-08-29T09:53:17.585Z,100487.59
2023-08-29T09:55:49.606Z,100485.13
2023-08-29T09:58:25.154Z,100494.53
2023-08-29T10:00:53.019Z,100485.56
2023-08-29T10:03:20.914Z,100478.34
2023-08-29T10:05:49.978Z,100470.84
2023-08-29T10:08:29.433Z,100455.41
2023-08-29T10:11:00.713Z,100459.38
2023-08-29T10:13:29.170Z,100468.69
2023-08-29T10:15:58.283Z,100466.84
2023-08-29T10:18:26.919Z,100470.47
2023-08-29T10:20:54.960Z,100458.72
2023-08-29T10:23:26.803Z,100455.94
2023-08-29T10:25:56.871Z,100453.75
2023-08-29T10:28:24.050Z,100454.88
2023-08-29T10:30:53.571Z,100452.25
2023-08-29T10:33:21.499Z,100455.66
2023-08-29T10:35:49.920Z,100461.28
2023-08-29T10:38:21.324Z,100459.69
2023-08-29T10:41:13.378Z,100454.38
2023-08-29T10:43:41.544Z,100460.44
2023-08-29T10:46:10.820Z,100454.13
2023-08-29T10:48:44.832Z,100444.25
2023-08-29T10:51:16.131Z,100447.84
2023-08-29T10:54:06.566Z,100450.00
2023-08-29T10:56:44.526Z,100451.28
2023-08-29T10:59:30.852Z,100446.13
2023-08-29T11:02:30.520Z,100444.59
2023-08-29T11:05:06.488Z,100440.06
2023-08-29T11:07:55.441Z,100442.53
2023-08-29T11:10:54.541Z,100438.75
2023-08-29T11:13:27.575Z,100441.06
2023-08-29T11:15:54.286Z,100437.59
2023-08-29T11:18:32.034Z,100430.44
2023-08-29T11:20:59.046Z,100427.31
2023-08-29T11:23:26.186Z,100421.78
2023-08-29T11:25:52.888Z,100420.50
2023-08-29T11:28:20.218Z,100422.19
2023-08-29T11:30:47.909Z,100419.06
2023-08-29T11:33:15.696Z,100422.75
2023-08-29T11:35:43.683Z,100425.47
2023-08-29T11:38:10.767Z,100420.28
2023-08-29T11:41:00.959Z,100426.97
2023-08-29T11:43:58.868Z,100416.25
2023-08-29T11:46:15.929Z,100421.09
2023-08-29T11:48:43.070Z,100414.78
2023-08-29T11:51:09.883Z,100418.03
2023-08-29T11:53:39.128Z,100416.16
2023-08-29T11:56:10.926Z,100414.09
2023-08-29T11:58:38.978Z,100416.81
2023-08-29T12:01:06.446Z,100419.84
2023-08-29T12:03:37.031Z,100416.72
2023-08-29T12:06:05.941Z,100411.03
2023-08-29T12:08:35.740Z,100407.25
2023-08-29T12:11:03.603Z,100404.06
2023-08-29T12:13:30.389Z,100399.19
2023-08-29T12:15:59.300Z,100408.66
2023-08-29T12:18:27.434Z,100400.38
2023-08-29T12:21:16.635Z,100401.03
2023-08-29T12:23:45.507Z,100401.31
2023-08-29T12:26:13.195Z,100399.09
2023-08-29T12:28:40.429Z,100392.00
2023-08-29T12:31:08.698Z,100384.25
2023-08-29T12:33:36.710Z,100393.56
2023-08-29T12:36:04.432Z,100381.16
2023-08-29T12:38:32.567Z,100386.75
2023-08-29T12:40:59.560Z,100386.56
2023-08-29T12:43:26.426Z,100383.66
2023-08-29T12:45:59.982Z,100385.28
2023-08-29T12:48:27.975Z,100375.84
2023-08-29T12:50:54.770Z,100369.53
2023-08-29T12:53:21.560Z,100373.03
2023-08-29T12:55:48.534Z,100378.88
2023-08-29T12:58:15.242Z,100369.78
2023-08-29T13:00:42.977Z,100365.09
2023-08-29T13:03:10.480Z,100362.34
2023-08-29T13:05:37.619Z,100362.50
2023-08-29T13:08:05.580Z,100352.03
2023-08-29T13:10:32.513Z,100362.88
2023-08-29T13:12:59.182Z,100358.59
2023-08-29T13:15:37.025Z,100365.28
2023-08-29T13:18:08.083Z,100364.16
2023-08-29T13:20:35.356Z,100364.78
2023-08-29T13:23:02.123Z,100354.81
2023-08-29T13:25:30.044Z,100352.13
2023-08-29T13:27:56.938Z,100361.03
2023-08-29T13:30:23.862Z,100357.69
2023-08-29T13:32:53.233Z,100357.38
2023-08-29T13:35:20.452Z,100354.84
2023-08-29T13:37:47.441Z,100350.38
2023-08-29T13:40:17.972Z,100352.66
2023-08-29T13:42:44.743Z,100349.84
2023-08-29T13:45:12.389Z,100344.84
2023-08-29T13:47:39.679Z,100340.16
2023-08-29T13:50:07.099Z,100338.53
2023-08-29T13:52:33.858Z,100336.81
2023-08-29T13:55:00.818Z,100335.78
2023-08-29T13:57:29.733Z,100342.69
2023-08-29T13:59:56.284Z,100338.97
2023-08-29T14:02:22.977Z,100342.13
2023-08-29T14:04:49.775Z,100345.59
2023-08-29T14:07:17.770Z,100340.94
2023-08-29T14:09:44.577Z,100343.69
2023-08-29T14:12:14.231Z,100338.28
2023-08-29T14:14:41.201Z,100340.19
2023-08-29T14:17:07.915Z,100336.81
2023-08-29T14:19:36.603Z,100331.94
2023-08-29T14:22:05.095Z,100327.44
2023-08-29T14:24:32.299Z,100336.84
2023-08-29T14:26:59.105Z,100336.75
2023-08-29T14:29:29.928Z,100337.03
2023-08-29T14:31:56.805Z,100337.53
2023-08-29T14:34:23.434Z,100340.00
2023-08-29T14:36:50.108Z,100339.75
2023-08-29T14:39:17.702Z,100340.34
2023-08-29T14:41:45.033Z,100336.50
2023-08-29T14:44:11.976Z,100343.66
2023-08-29T14:46:38.797Z,100352.03
2023-08-29T14:49:05.564Z,100354.94
2023-08-29T14:51:32.316Z,100349.56
2023-08-29T14:54:03.573Z,100348.88
2023-08-29T14:56:32.005Z,100351.41
2023-08-29T14:59:00.696Z,100348.69
2023-08-29T15:01:27.979Z,100360.97
2023-08-29T15:03:55.132Z,100364.13
2023-08-29T15:06:21.947Z,100359.84
2023-08-29T15:08:48.644Z,100358.03
2023-08-29T15:11:17.595Z,100363.56
2023-08-29T15:13:44.265Z,100365.13
2023-08-29T15:16:11.113Z,100360.44
2023-08-29T15:18:37.866Z,100351.78
2023-08-29T15:21:06.853Z,100357.59
2023-08-29T15:23:35.183Z,100359.19
2023-08-29T15:26:05.477Z,100354.81
2023-08-29T15:28:32.194Z,100362.03
2023-08-29T15:31:02.055Z,100350.72
2023-08-29T15:33:30.083Z,100358.81
2023-08-29T15:35:58.135Z,100361.44
2023-08-29T15:38:25.538Z,100360.41
2023-08-29T15:40:55.935Z,100352.81
2023-08-29T15:43:25.758Z,100350.06
2023-08-29T15:45:53.086Z,100351.66
2023-08-29T15:48:20.089Z,100353.19
2023-08-29T15:50:47.599Z,100350.38
2023-08-29T15:53:15.251Z,100343.44
2023-08-29T15:55:43.026Z,100335.28
2023-08-29T15:58:10.064Z,100334.59
2023-08-29T16:00:38.255Z,100337.09
2023-08-29T16:03:10.658Z,100328.56
2023-08-29T16:05:37.650Z,100327.34
2023-08-29T16:08:04.982Z,100336.13
2023-08-29T16:10:31.929Z,100333.28
2023-08-29T16:12:58.575Z,100338.84
2023-08-29T16:15:25.234Z,100336.75
2023-08-29T16:17:51.941Z,100330.84
2023-08-29T16:20:18.708Z,100337.34
2023-08-29T16:22:46.325Z,100333.63
2023-08-29T16:25:13.149Z,100339.16
2023-08-29T16:27:39.988Z,100337.25
2023-08-29T16:30:08.515Z,100335.22
2023-08-29T16:32:36.448Z,100339.94
2023-08-29T16:35:03.429Z,100333.94
2023-08-29T16:37:30.480Z,100334.69
2023-08-29T16:39:58.887Z,100343.91
2023-08-29T16:42:25.698Z,100338.50
2023-08-29T16:44:52.675Z,100338.47
2023-08-29T16:47:19.470Z,100342.94
2023-08-29T16:49:46.118Z,100336.81
2023-08-29T16:52:12.883Z,100342.19
2023-08-29T16:54:39.505Z,100328.00
2023-08-29T16:57:06.520Z,100327.16
2023-08-29T16:59:57.547Z,100325.50
2023-08-29T17:02:25.546Z,100323.03
2023-08-29T17:04:53.635Z,100317.59
2023-08-29T17:07:20.581Z,100311.31
2023-08-29T17:09:47.208Z,100308.56
2023-08-29T17:12:21.647Z,100320.25
2023-08-29T17:14:50.185Z,100317.09
2023-08-29T17:17:17.827Z,100312.81
2023-08-29T17:19:45.163Z,100315.38
2023-08-29T17:22:11.965Z,100311.63
2023-08-29T17:24:39.883Z,100310.59
2023-08-29T17:27:10.523Z,100315.94
2023-08-29T17:29:38.162Z,100312.66
2023-08-29T17:32:05.453Z,100312.66
2023-08-29T17:34:32.311Z,100315.34
2023-08-29T17:37:01.903Z,100316.03
2023-08-29T17:39:29.352Z,100321.63
2023-08-29T17:41:56.473Z,100329.75
2023-08-29T17:44:23.513Z,100327.88
2023-08-29T17:46:50.451Z,100324.50
2023-08-29T17:49:19.324Z,100324.53
2023-08-29T17:51:46.311Z,100325.56
2023-08-29T17:54:15.788Z,100330.63
2023-08-29T17:56:42.287Z,100329.97
2023-08-29T17:59:08.948Z,100327.53
2023-08-29T18:01:35.657Z,100322.53
2023-08-29T18:04:02.271Z,100323.44
2023-08-29T18:06:28.838Z,100318.94
2023-08-29T18:08:56.399Z,100323.47
2023-08-29T18:11:23.093Z,100329.72
2023-08-29T18:13:49.895Z,100321.94
2023-08-29T18:16:17.022Z,100321.16
2023-08-29T18:18:43.785Z,100316.94
2023-08-29T18:21:11.918Z,100318.59
2023-08-29T18:23:38.804Z,100314.09
2023-08-29T18:26:06.977Z,100318.53
2023-08-29T18:28:34.679Z,100308.00
2023-08-29T18:31:04.074Z,100307.31
2023-08-29T18:33:36.729Z,100304.03
2023-08-29T18:36:04.022Z,100297.84
2023-08-29T18:38:31.352Z,100300.53
2023-08-29T18:40:58.885Z,100295.47
2023-08-29T18:43:25.687Z,100297.41
2023-08-29T18:45:52.384Z,100300.19
2023-08-29T18:48:20.376Z,100308.97
2023-08-29T18:50:47.272Z,100309.06
2023-08-29T18:53:14.109Z,100304.72
2023-08-29T18:55:45.068Z,100311.88
2023-08-29T18:58:12.616Z,100307.63
2023-08-29T19:00:39.407Z,100305.94
2023-08-29T19:03:07.321Z,100313.97
2023-08-29T19:05:36.464Z,100316.63
2023-08-29T19:08:03.522Z,100316.69
2023-08-29T19:10:30.806Z,100314.22
2023-08-29T19:12:58.030Z,100309.03
2023-08-29T19:15:24.995Z,100306.38
2023-08-29T19:17:52.091Z,100310.88
2023-08-29T19:20:18.865Z,100306.44
2023-08-29T19:22:45.621Z,100308.13
2023-08-29T19:25:12.962Z,100308.97
2023-08-29T19:27:39.574Z,100311.69
2023-08-29T19:30:09.100Z,100309.16
2023-08-29T19:32:36.309Z,100307.53
2023-08-29T19:35:05.230Z,100305.94
2023-08-29T19:37:35.371Z,100302.56
2023-08-29T19:40:02.116Z,100301.75
2023-08-29T19:42:28.641Z,100313.09
2023-08-29T19:44:55.295Z,100307.84
2023-08-29T19:47:25.785Z,100305.34
2023-08-29T19:49:52.436Z,100305.53
2023-08-29T19:52:19.156Z,100299.44
2023-08-29T19:54:45.909Z,100309.94
2023-08-29T19:57:12.680Z,100304.88
2023-08-29T19:59:39.363Z,100303.19
2023-08-29T20:02:06.139Z,100306.72
2023-08-29T20:04:32.865Z,100311.91
2023-08-29T20:06:59.459Z,100311.81
2023-08-29T20:09:26.448Z,100312.03
2023-08-29T20:11:54.841Z,100314.75
2023-08-29T20:14:21.496Z,100315.63
2023-08-29T20:16:48.191Z,100312.03
2023-08-29T20:19:15.365Z,100313.03
2023-08-29T20:21:42.197Z,100310.44
2023-08-29T20:24:08.850Z,100310.38
2023-08-29T20:26:35.448Z,100310.50
2023-08-29T20:29:02.894Z,100314.03
2023-08-29T20:31:39.089Z,100307.91
2023-08-29T20:34:06.456Z,100308.78
2023-08-29T20:36:33.099Z,100313.94
2023-08-29T20:38:59.797Z,100308.78
2023-08-29T20:41:26.560Z,100300.97
2023-08-29T20:43:53.173Z,100317.59
2023-08-29T20:46:20.384Z,100316.00
2023-08-29T20:48:51.882Z,100314.22
2023-08-29T20:51:20.634Z,100313.34
2023-08-29T20:53:47.268Z,100298.41
2023-08-29T20:56:13.909Z,100298.47
2023-08-29T20:58:40.717Z,100299.34
2023-08-29T21:01:07.468Z,100301.16
2023-08-29T21:03:34.372Z,100302.06
2023-08-29T21:06:01.157Z,100302.06
2023-08-29T21:08:28.347Z,100302.97
2023-08-29T21:10:55.415Z,100298.59
2023-08-29T21:13:23.376Z,100299.38
2023-08-29T21:15:50.218Z,100297.69
2023-08-29T21:18:18.486Z,100296.00
2023-08-29T21:20:55.693Z,100293.47
2023-08-29T21:23:23.171Z,100293.47
2023-08-29T21:25:50.979Z,100291.03
2023-08-29T21:28:20.306Z,100291.97
2023-08-29T21:30:47.586Z,100299.94
2023-08-29T21:33:14.313Z,100292.09
2023-08-29T21:35:42.278Z,100285.28
2023-08-29T21:38:10.224Z,100287.09
2023-08-29T21:40:38.252Z,100288.94
2023-08-29T21:43:10.567Z,100275.88
2023-08-29T21:45:38.650Z,100273.97
2023-08-29T21:48:07.407Z,100277.44
2023-08-29T21:50:45.565Z,100273.88
2023-08-29T21:53:13.175Z,100274.75
2023-08-29T21:55:41.276Z,100271.19
2023-08-29T21:58:11.750Z,100272.94
2023-08-29T22:00:38.892Z,100271.19
2023-08-29T22:03:07.061Z,100264.22
2023-08-29T22:05:34.111Z,100265.25
2023-08-29T22:08:01.649Z,100254.03
2023-08-29T22:10:28.295Z,100255.03
2023-08-29T22:12:55.024Z,100266.56
2023-08-29T22:15:21.714Z,100256.25
2023-08-29T22:17:48.439Z,100251.88
2023-08-29T22:20:15.770Z,100241.47
2023-08-29T22:22:42.882Z,100247.56
2023-08-29T22:25:13.398Z,100250.16
2023-08-29T22:27:40.020Z,100240.56
2023-08-29T22:30:18.937Z,100241.44
2023-08-29T22:32:45.728Z,100237.06
2023-08-29T22:35:12.530Z,100225.72
2023-08-29T22:37:39.176Z,100227.78
2023-08-29T22:40:06.734Z,100238.28
2023-08-29T22:42:33.415Z,100233.00
2023-08-29T22:45:00.046Z,100227.69
2023-08-29T22:47:27.014Z,100221.63
2023-08-29T22:49:53.805Z,100233.06
2023-08-29T22:52:20.412Z,100219.97
2023-08-29T22:54:47.095Z,100213.84
2023-08-29T22:57:13.830Z,100214.72
2023-08-29T22:59:40.520Z,100217.28
2023-08-29T23:02:07.133Z,100212.09
2023-08-29T23:04:34.890Z,100217.38
2023-08-29T23:07:08.683Z,100208.56
2023-08-29T23:09:37.123Z,100207.84
2023-08-29T23:12:05.172Z,100214.97
2023-08-29T23:14:32.102Z,100203.63
2023-08-29T23:16:58.695Z,100213.19
2023-08-29T23:19:26.102Z,100210.50
2023-08-29T23:21:53.882Z,100205.34
2023-08-29T23:24:21.362Z,100208.00
2023-08-29T23:26:49.117Z,100204.53
2023-08-29T23:29:16.147Z,100201.00
2023-08-29T23:31:42.940Z,100200.97
2023-08-29T23:34:09.553Z,100201.00
2023-08-29T23:36:36.170Z,100200.97
2023-08-29T23:39:03.915Z,100206.13
2023-08-29T23:41:30.574Z,100207.00
2023-08-29T23:43:57.224Z,100206.16
2023-08-29T23:46:24.011Z,100213.19
2023-08-29T23:48:50.643Z,100208.69
2023-08-29T23:51:17.560Z,100204.31
2023-08-29T23:53:44.253Z,100193.09
2023-08-29T23:56:10.893Z,100186.03
2023-08-29T23:58:37.514Z,100185.13
